Time;durP1;ratioP1;P1;durP2;ratioP2;P2;SDS_P1;SDS_P2;PMS_P1;PMS_P2;Temp;Humidity;BMP_temperature;BMP_pressure;BME280_temperature;BME280_humidity;BME280_pressure;Samples;Min_cycle;Max_cycle;Signal;HPM_P1;HPM_P2
2022/01/06 00:00:29;;;;;;;14.52;4.05;;;;;;;5.19;69.18;99686.03;5003090;28;20118;-88
2022/01/06 00:02:57;;;;;;;15.20;4.57;;;;;;;5.18;69.16;99682.56;5003718;28;20374;-87
2022/01/06 00:05:24;;;;;;;19.80;4.28;;;;;;;5.19;68.91;99680.75;4982998;28;20477;-88
2022/01/06 00:07:52;;;;;;;21.83;5.82;;;;;;;5.18;69.01;99686.97;4987976;28;20519;-87
2022/01/06 00:10:20;;;;;;;12.93;3.70;;;;;;;5.17;69.35;99682.69;4996407;28;20042;-88
2022/01/06 00:13:06;;;;;;;17.88;4.82;;;;;;;5.21;69.23;99687.59;4994573;28;20045;-88
2022/01/06 00:25:52;;;;;;;11.88;4.03;;;;;;;5.14;69.72;99686.38;4969029;28;20056;-87
2022/01/06 00:28:20;;;;;;;22.15;6.38;;;;;;;5.15;69.71;99692.47;4984565;28;20450;-88
2022/01/06 00:30:47;;;;;;;24.17;5.50;;;;;;;5.14;69.70;99693.38;4989596;28;20076;-87
2022/01/06 00:33:14;;;;;;;24.13;5.03;;;;;;;5.14;70.01;99688.13;4984801;28;20046;-87
2022/01/06 00:35:41;;;;;;;21.92;5.93;;;;;;;5.13;69.99;99681.19;4991284;28;20061;-88
2022/01/06 00:38:08;;;;;;;32.53;5.72;;;;;;;5.13;69.93;99687.28;4997194;28;20069;-88
2022/01/06 00:40:35;;;;;;;16.20;4.35;;;;;;;5.14;70.10;99688.13;4954419;28;20623;-87
2022/01/06 00:43:04;;;;;;;19.85;5.03;;;;;;;5.11;70.19;99690.97;4969814;28;20049;-87
2022/01/06 00:45:31;;;;;;;11.60;4.20;;;;;;;5.11;70.05;99691.81;4989827;28;20125;-87
2022/01/06 00:47:58;;;;;;;19.55;4.75;;;;;;;5.11;70.11;99691.81;4990846;28;20054;-88
2022/01/06 00:50:26;;;;;;;16.15;5.00;;;;;;;5.11;70.04;99696.25;5003364;28;20050;-86
2022/01/06 00:52:53;;;;;;;12.20;4.70;;;;;;;5.11;70.31;99698.88;4987045;28;20057;-88
2022/01/06 00:55:20;;;;;;;9.93;4.05;;;;;;;5.11;70.13;99698.88;4950383;28;20051;-87
2022/01/06 00:57:46;;;;;;;16.35;5.40;;;;;;;5.10;70.39;99703.31;5006429;28;20057;-87
2022/01/06 01:00:15;;;;;;;14.63;3.92;;;;;;;5.09;70.49;99699.00;4987826;28;20093;-87
2022/01/06 01:02:42;;;;;;;11.77;4.13;;;;;;;5.09;70.42;99704.25;4963259;28;20128;-88
2022/01/06 01:05:09;;;;;;;19.08;4.60;;;;;;;5.10;70.62;99718.25;4979064;28;20050;-88
2022/01/06 01:07:36;;;;;;;11.65;3.88;;;;;;;5.10;70.44;99710.34;4991336;28;20050;-87
2022/01/06 01:10:03;;;;;;;28.27;4.90;;;;;;;5.10;70.71;99703.31;4976098;28;20044;-88
2022/01/06 01:12:30;;;;;;;12.52;4.72;;;;;;;5.10;70.69;99689.31;4993586;28;20779;-87
2022/01/06 01:15:04;;;;;;;17.70;4.18;;;;;;;5.10;70.58;99694.56;4969588;28;20042;-88
2022/01/06 01:17:33;;;;;;;19.23;4.22;;;;;;;5.09;70.44;99691.09;4955259;28;20517;-88
2022/01/06 01:20:01;;;;;;;16.67;4.18;;;;;;;5.09;70.55;99714.78;4989604;28;20049;-88
2022/01/06 01:22:27;;;;;;;14.95;3.90;;;;;;;5.09;70.45;99716.56;4983922;28;20041;-87
2022/01/06 01:24:54;;;;;;;16.45;4.65;;;;;;;5.08;70.64;99715.72;4984178;28;20042;-88
2022/01/06 01:27:23;;;;;;;17.90;4.43;;;;;;;5.09;70.50;99720.06;4995646;28;20120;-87
2022/01/06 01:29:58;;;;;;;17.90;4.78;;;;;;;5.09;70.46;99714.78;4983004;28;20061;-87
2022/01/06 01:32:31;;;;;;;12.65;3.15;;;;;;;5.08;70.82;99728.03;5004586;28;20471;-88
2022/01/06 01:35:02;;;;;;;20.83;3.90;;;;;;;5.07;70.84;99723.72;5002297;28;20049;-86
2022/01/06 01:37:30;;;;;;;19.00;4.18;;;;;;;5.06;70.84;99724.66;5001916;28;20073;-87
2022/01/06 01:39:57;;;;;;;15.25;5.25;;;;;;;5.07;70.84;99729.00;4973496;28;20038;-88
2022/01/06 01:42:25;;;;;;;19.73;5.03;;;;;;;5.07;70.92;99724.56;4992360;28;20545;-87
2022/01/06 01:44:52;;;;;;;13.85;5.05;;;;;;;5.04;71.22;99723.91;5008661;28;20049;-87
2022/01/06 01:47:38;;;;;;;15.05;4.18;;;;;;;5.06;70.94;99733.38;5008075;28;20051;-86
2022/01/06 01:50:16;;;;;;;14.93;4.60;;;;;;;5.05;71.23;99733.50;4969729;28;20041;-88
2022/01/06 01:52:48;;;;;;;22.83;4.88;;;;;;;5.03;71.35;99723.06;4967923;28;20607;-87
2022/01/06 01:55:22;;;;;;;14.80;5.25;;;;;;;4.99;71.62;99732.16;4977604;28;20046;-87
2022/01/06 01:57:50;;;;;;;21.50;5.70;;;;;;;5.04;71.36;99748.47;5014670;28;20037;-87
2022/01/06 02:00:18;;;;;;;15.77;4.43;;;;;;;5.04;71.42;99740.56;4994428;28;20125;-88
2022/01/06 02:02:45;;;;;;;22.00;5.97;;;;;;;5.04;71.66;99753.72;4973151;28;21010;-88
2022/01/06 02:05:13;;;;;;;19.48;4.70;;;;;;;5.05;71.81;99754.56;4988060;28;20047;-87
2022/01/06 02:07:41;;;;;;;18.35;4.25;;;;;;;5.04;72.17;99755.50;4991412;28;20053;-88
2022/01/06 02:10:09;;;;;;;19.65;4.80;;;;;;;5.03;72.13;99762.56;4990017;28;20060;-87
2022/01/06 02:12:38;;;;;;;19.13;5.00;;;;;;;5.02;72.44;99767.94;4994473;28;20042;-88
2022/01/06 02:15:08;;;;;;;18.98;5.07;;;;;;;5.00;72.70;99768.88;5002447;28;20076;-88
2022/01/06 02:17:36;;;;;;;17.63;5.20;;;;;;;5.00;72.61;99782.03;4992452;28;20448;-87
2022/01/06 02:20:10;;;;;;;20.80;4.70;;;;;;;4.98;72.85;99775.16;4971191;28;20379;-88
2022/01/06 02:22:36;;;;;;;;;;;;;;;4.82;73.44;99785.88;4976763;28;20452;-87
2022/01/06 02:25:12;;;;;;;14.38;4.40;;;;;;;4.91;73.19;99784.41;4992574;28;19925;-88
2022/01/06 02:27:39;;;;;;;14.75;5.38;;;;;;;4.96;72.91;99780.56;4929023;28;20101;-88
2022/01/06 02:30:08;;;;;;;18.38;5.75;;;;;;;4.97;73.22;99786.66;4960189;28;20052;-87
2022/01/06 02:32:35;;;;;;;19.45;5.32;;;;;;;4.96;73.06;99796.34;4980368;28;20054;-88
2022/01/06 02:35:07;;;;;;;18.33;5.75;;;;;;;4.95;73.34;99796.44;4989189;28;20034;-88
2022/01/06 02:37:34;;;;;;;26.77;7.45;;;;;;;4.96;73.45;99798.97;4952381;28;20050;-88
2022/01/06 02:40:06;;;;;;;13.52;4.53;;;;;;;4.95;73.37;99804.31;4988272;28;20038;-88
2022/01/06 02:42:33;;;;;;;18.23;4.28;;;;;;;4.96;73.46;99808.63;4996829;28;20516;-88
2022/01/06 02:45:00;;;;;;;11.15;3.72;;;;;;;4.98;73.20;99801.47;4991128;28;20452;-88
2022/01/06 02:47:26;;;;;;;25.10;5.88;;;;;;;4.98;73.24;99801.47;4964385;28;20101;-87
2022/01/06 02:49:53;;;;;;;13.52;5.25;;;;;;;4.99;72.86;99792.66;4988966;28;20038;-88
2022/01/06 02:52:20;;;;;;;17.83;5.20;;;;;;;4.99;72.78;99787.41;4990790;28;20038;-87
2022/01/06 02:54:47;;;;;;;15.70;4.50;;;;;;;4.99;72.92;99792.66;4960139;28;20062;-88
2022/01/06 02:57:13;;;;;;;13.57;4.60;;;;;;;4.98;72.90;99797.06;5001125;28;20045;-88
2022/01/06 02:59:40;;;;;;;25.20;5.40;;;;;;;4.99;73.31;99804.03;4980972;28;20048;-87
2022/01/06 03:02:08;;;;;;;18.95;6.18;;;;;;;4.99;73.19;99798.78;4977994;28;20117;-88
2022/01/06 03:04:35;;;;;;;22.65;5.53;;;;;;;4.99;73.07;99805.81;4951716;28;20076;-88
2022/01/06 03:07:03;;;;;;;12.18;4.00;;;;;;;4.98;73.29;99802.31;4994263;28;20049;-87
2022/01/06 03:09:38;;;;;;;16.05;5.63;;;;;;;4.97;73.53;99800.66;4981959;28;20534;-86
2022/01/06 03:12:11;;;;;;;24.60;6.40;;;;;;;4.98;73.48;99804.97;4992434;28;20368;-88
2022/01/06 03:14:38;;;;;;;15.90;4.83;;;;;;;4.94;73.10;99803.50;4989499;28;20049;-88
2022/01/06 03:17:07;;;;;;;19.08;5.15;;;;;;;4.97;73.33;99805.06;4990635;28;21011;-88
2022/01/06 03:19:33;;;;;;;17.40;5.07;;;;;;;4.96;73.28;99813.91;4985716;28;20042;-88
2022/01/06 03:22:00;;;;;;;20.75;3.70;;;;;;;4.96;73.56;99822.66;4949918;28;20042;-88
2022/01/06 03:24:27;;;;;;;17.25;5.05;;;;;;;4.96;73.49;99822.66;4985138;28;20050;-88
2022/01/06 03:26:54;;;;;;;14.95;4.45;;;;;;;4.96;73.63;99825.28;4996573;28;20569;-88
2022/01/06 03:29:20;;;;;;;19.50;5.28;;;;;;;4.96;73.34;99834.94;4989882;28;20123;-88
2022/01/06 03:31:47;;;;;;;18.52;4.53;;;;;;;4.95;73.44;99825.38;5009145;28;20048;-88
2022/01/06 03:34:14;;;;;;;21.73;5.47;;;;;;;4.95;73.56;99826.22;4987328;28;21130;-88
2022/01/06 03:36:41;;;;;;;11.18;5.20;;;;;;;4.96;73.17;99821.78;4960081;28;20401;-88
2022/01/06 03:39:08;;;;;;;17.50;5.28;;;;;;;4.97;73.03;99820.88;5005555;28;20052;-88
2022/01/06 03:41:35;;;;;;;21.25;5.53;;;;;;;4.96;73.14;99811.25;4960379;28;20826;-87
2022/01/06 03:44:01;;;;;;;16.38;4.95;;;;;;;4.94;73.18;99819.28;4977698;28;20391;-88
2022/01/06 03:46:28;;;;;;;15.82;4.93;;;;;;;4.94;72.95;99818.44;4974761;28;20464;-88
2022/01/06 03:48:55;;;;;;;15.85;5.00;;;;;;;4.92;73.32;99818.53;4975302;28;20078;-87
2022/01/06 03:51:23;;;;;;;20.05;5.22;;;;;;;4.92;73.42;99829.06;4980047;28;20052;-88
2022/01/06 03:53:51;;;;;;;18.45;4.63;;;;;;;4.92;73.20;99836.09;4986058;28;20116;-88
2022/01/06 03:56:18;;;;;;;15.73;4.60;;;;;;;4.90;73.36;99838.00;4969094;28;20173;-87
2022/01/06 03:58:45;;;;;;;15.10;5.38;;;;;;;4.90;73.75;99844.09;4969800;28;20393;-88
2022/01/06 04:01:11;;;;;;;17.58;5.90;;;;;;;4.89;73.61;99855.56;4991021;28;20413;-88
2022/01/06 04:03:39;;;;;;;13.38;4.38;;;;;;;4.89;73.67;99860.84;4975579;28;20441;-87
2022/01/06 04:06:06;;;;;;;20.90;6.00;;;;;;;4.87;73.56;99854.81;4952236;28;20546;-88
2022/01/06 04:08:32;;;;;;;19.80;4.20;;;;;;;4.86;73.68;99862.78;4958729;28;20057;-88
2022/01/06 04:10:59;;;;;;;13.63;3.90;;;;;;;4.86;73.86;99868.94;5000480;28;20043;-88
2022/01/06 04:13:26;;;;;;;10.75;4.80;;;;;;;4.86;73.81;99855.78;4967701;28;20114;-88
2022/01/06 04:15:53;;;;;;;15.82;5.93;;;;;;;4.87;73.79;99854.81;4962460;28;20045;-88
2022/01/06 04:18:20;;;;;;;18.58;5.28;;;;;;;4.87;73.77;99860.09;5000002;28;20038;-87
2022/01/06 04:20:47;;;;;;;16.10;4.97;;;;;;;4.87;73.48;99870.59;4989017;28;20049;-88
2022/01/06 04:23:13;;;;;;;15.57;5.47;;;;;;;4.88;73.65;99874.06;4998726;28;20049;-88
2022/01/06 04:25:40;;;;;;;17.88;4.78;;;;;;;4.89;73.76;99878.41;4990858;28;20058;-88
2022/01/06 04:28:07;;;;;;;15.75;4.88;;;;;;;4.89;73.78;99881.03;5004541;28;20171;-88
2022/01/06 04:30:34;;;;;;;12.73;4.68;;;;;;;4.89;73.75;99878.41;5008332;28;20053;-88
2022/01/06 04:33:01;;;;;;;12.02;3.90;;;;;;;4.89;73.66;99881.88;5003218;28;20053;-86
2022/01/06 04:35:27;;;;;;;9.90;4.07;;;;;;;4.89;73.67;99878.41;4970717;28;22782;-88
2022/01/06 04:37:54;;;;;;;13.77;4.60;;;;;;;4.89;74.14;99884.50;4988136;28;20545;-88
2022/01/06 04:40:22;;;;;;;18.73;5.25;;;;;;;4.90;74.01;99890.63;4987652;28;20046;-86
2022/01/06 04:42:49;;;;;;;12.93;4.65;;;;;;;4.89;73.81;99896.84;4953018;28;20413;-88
2022/01/06 04:45:16;;;;;;;10.40;4.88;;;;;;;4.88;73.96;99901.22;4992958;28;20038;-88
2022/01/06 04:47:42;;;;;;;27.92;5.57;;;;;;;4.89;73.72;99905.56;4993213;28;20501;-87
2022/01/06 04:50:09;;;;;;;20.40;4.68;;;;;;;4.89;73.93;99913.44;4984990;28;20046;-88
2022/01/06 04:52:36;;;;;;;11.32;3.65;;;;;;;4.88;73.80;99924.91;4990567;28;20151;-87
2022/01/06 04:55:04;;;;;;;13.30;4.57;;;;;;;4.90;73.96;99924.81;5010220;28;20056;-86
2022/01/06 04:57:31;;;;;;;12.45;4.25;;;;;;;4.88;74.03;99932.78;4967571;28;20045;-88
2022/01/06 04:59:58;;;;;;;15.50;5.45;;;;;;;4.88;74.25;99939.84;4988231;28;20398;-88
2022/01/06 05:02:27;;;;;;;12.55;4.13;;;;;;;4.89;73.96;99938.94;4994660;28;20092;-88
2022/01/06 05:04:54;;;;;;;12.48;4.72;;;;;;;4.87;74.24;99931.13;4964966;28;20053;-88
2022/01/06 05:07:21;;;;;;;19.67;5.00;;;;;;;4.88;74.04;99939.84;4983637;28;20508;-88
2022/01/06 05:09:47;;;;;;;21.45;5.88;;;;;;;4.87;74.10;99939.00;5005513;28;20053;-87
2022/01/06 05:12:14;;;;;;;17.73;6.28;;;;;;;4.88;73.98;99939.84;4967214;28;20049;-88
2022/01/06 05:14:42;;;;;;;18.42;5.50;;;;;;;4.87;74.07;99946.91;4973089;28;20387;-87
2022/01/06 05:17:09;;;;;;;15.95;4.80;;;;;;;4.87;74.14;99940.81;4971155;28;20048;-88
2022/01/06 05:19:36;;;;;;;17.35;6.60;;;;;;;4.87;74.33;99953.97;4985459;28;20060;-87
2022/01/06 05:22:03;;;;;;;21.23;7.22;;;;;;;4.88;74.17;99956.47;4994693;28;20050;-88
2022/01/06 05:24:30;;;;;;;16.23;5.82;;;;;;;4.85;74.08;99951.41;4993539;28;20049;-87
2022/01/06 05:26:57;;;;;;;16.13;6.65;;;;;;;4.86;74.06;99950.50;5033281;28;20044;-88
2022/01/06 05:29:25;;;;;;;10.02;4.90;;;;;;;4.85;74.08;99951.41;5012687;28;20487;-88
2022/01/06 05:31:52;;;;;;;27.35;6.65;;;;;;;4.86;74.10;99954.88;5003721;28;20150;-88
2022/01/06 05:34:18;;;;;;;21.77;6.63;;;;;;;4.82;74.27;99956.03;5001423;28;20049;-88
2022/01/06 05:36:45;;;;;;;18.10;5.55;;;;;;;4.81;73.95;99951.69;5008301;28;20395;-87
2022/01/06 05:39:12;;;;;;;15.85;5.78;;;;;;;4.80;73.95;99953.50;4979711;28;20049;-87
2022/01/06 05:41:38;;;;;;;12.98;4.90;;;;;;;4.81;73.91;99967.47;4990329;28;20049;-88
2022/01/06 05:44:05;;;;;;;20.05;5.97;;;;;;;4.79;74.07;99971.06;4970069;28;20049;-88
2022/01/06 05:46:32;;;;;;;12.98;4.80;;;;;;;4.77;74.13;99978.19;5009307;28;20030;-88
2022/01/06 05:48:59;;;;;;;15.68;5.18;;;;;;;4.77;73.99;99977.38;5008446;28;20033;-88
2022/01/06 05:51:25;;;;;;;12.93;4.85;;;;;;;4.75;74.27;99977.44;4997739;28;20116;-88
2022/01/06 05:53:54;;;;;;;15.35;4.75;;;;;;;4.75;74.02;99981.88;4999484;28;20038;-87
2022/01/06 05:56:21;;;;;;;15.93;4.93;;;;;;;4.73;74.05;99968.84;4989456;28;20042;-85
2022/01/06 05:58:48;;;;;;;17.77;6.07;;;;;;;4.71;74.20;99973.34;4990438;28;20046;-88
2022/01/06 06:01:15;;;;;;;22.85;5.75;;;;;;;4.71;74.16;99975.97;5007930;28;20050;-88
2022/01/06 06:03:42;;;;;;;26.77;6.93;;;;;;;4.70;74.41;99978.69;4986033;28;20054;-87
2022/01/06 06:06:09;;;;;;;18.50;5.45;;;;;;;4.70;74.51;99976.03;4984390;28;20046;-88
2022/01/06 06:08:35;;;;;;;16.08;5.35;;;;;;;4.69;74.54;99980.47;4992826;28;20050;-88
2022/01/06 06:11:02;;;;;;;9.40;4.55;;;;;;;4.68;74.44;99981.41;4972644;28;20050;-88
2022/01/06 06:13:29;;;;;;;21.02;6.07;;;;;;;4.69;74.55;99982.25;4990846;28;20083;-88
2022/01/06 06:15:55;;;;;;;11.52;5.22;;;;;;;4.68;74.50;99989.31;5005613;28;20513;-87
2022/01/06 06:18:22;;;;;;;20.08;5.63;;;;;;;4.69;74.39;99992.78;4961312;28;20493;-88
2022/01/06 06:20:49;;;;;;;10.88;4.35;;;;;;;4.69;74.50;99992.78;4995182;28;20604;-88
2022/01/06 06:23:16;;;;;;;13.88;4.25;;;;;;;4.68;74.42;99991.94;4979319;28;20481;-87
2022/01/06 06:25:43;;;;;;;14.52;5.00;;;;;;;4.68;74.54;99997.22;4989790;28;20156;-88
2022/01/06 06:28:11;;;;;;;16.40;5.03;;;;;;;4.69;74.52;99993.63;4973253;28;20051;-88
2022/01/06 06:30:37;;;;;;;13.48;4.45;;;;;;;4.68;74.46;99993.69;4966874;28;20404;-87
2022/01/06 06:33:04;;;;;;;14.55;5.22;;;;;;;4.69;74.55;99998.03;4959137;28;20042;-88
2022/01/06 06:35:31;;;;;;;19.92;5.55;;;;;;;4.68;74.49;99994.56;4994161;28;20061;-88
2022/01/06 06:37:58;;;;;;;19.45;4.97;;;;;;;4.68;74.43;100001.59;4983432;28;20693;-88
2022/01/06 06:40:25;;;;;;;14.95;4.35;;;;;;;4.66;74.42;100004.34;4971583;28;20478;-88
2022/01/06 06:42:52;;;;;;;14.40;4.97;;;;;;;4.65;74.27;100005.25;4991170;28;20041;-88
2022/01/06 06:45:23;;;;;;;14.02;4.95;;;;;;;4.63;74.35;100008.91;4962116;28;20042;-87
2022/01/06 06:47:50;;;;;;;12.05;4.90;;;;;;;4.62;74.44;100015.97;4964331;28;20092;-88
2022/01/06 06:50:17;;;;;;;18.02;4.65;;;;;;;4.62;74.45;100017.75;4999876;28;20548;-88
2022/01/06 06:52:44;;;;;;;20.23;5.95;;;;;;;4.60;74.14;100025.72;4950095;28;20129;-87
2022/01/06 06:55:12;;;;;;;17.83;5.22;;;;;;;4.59;74.07;100023.22;4966321;28;20045;-88
2022/01/06 06:57:39;;;;;;;16.92;6.00;;;;;;;4.57;74.46;100028.56;4977718;28;20057;-88
2022/01/06 07:00:08;;;;;;;23.83;7.20;;;;;;;4.57;74.40;100032.03;4979056;28;20046;-87
2022/01/06 07:02:35;;;;;;;23.15;7.13;;;;;;;4.56;74.26;100027.72;4974562;28;20057;-87
2022/01/06 07:05:03;;;;;;;25.70;7.70;;;;;;;4.55;74.34;100018.16;4972548;28;20088;-88
2022/01/06 07:07:29;;;;;;;25.77;7.22;;;;;;;4.54;74.57;100029.59;4979679;28;20081;-87
2022/01/06 07:09:56;;;;;;;24.65;7.15;;;;;;;4.54;74.14;100036.63;4975092;28;20038;-88
2022/01/06 07:12:23;;;;;;;20.58;5.90;;;;;;;4.54;74.38;100042.72;4955849;28;20055;-87
2022/01/06 07:14:51;;;;;;;18.30;6.07;;;;;;;4.53;74.12;100043.69;4993440;28;20788;-88
2022/01/06 07:17:18;;;;;;;21.52;6.22;;;;;;;4.51;74.02;100040.28;4972407;28;20053;-88
2022/01/06 07:19:44;;;;;;;26.40;5.95;;;;;;;4.50;73.97;100046.50;4973454;28;20116;-87
2022/01/06 07:22:11;;;;;;;18.98;6.13;;;;;;;4.48;74.03;100047.53;4993279;28;20057;-87
2022/01/06 07:24:39;;;;;;;23.20;6.68;;;;;;;4.46;73.90;100052.88;4984450;28;20092;-88
2022/01/06 07:27:06;;;;;;;15.95;6.13;;;;;;;4.46;74.06;100054.66;4949663;28;20042;-88
2022/01/06 07:29:34;;;;;;;29.63;7.45;;;;;;;4.44;74.17;100059.16;4976843;28;20054;-88
2022/01/06 07:32:01;;;;;;;16.67;5.53;;;;;;;4.43;74.29;100058.31;4966530;28;20407;-87
2022/01/06 07:34:28;;;;;;;27.63;7.05;;;;;;;4.43;74.05;100066.22;4988634;28;20125;-88
2022/01/06 07:36:54;;;;;;;11.63;5.53;;;;;;;4.41;74.33;100070.72;4997118;28;20059;-86
2022/01/06 07:39:21;;;;;;;26.00;9.38;;;;;;;4.41;73.94;100075.97;4976760;28;20513;-88
2022/01/06 07:41:48;;;;;;;19.88;6.40;;;;;;;4.39;73.93;100090.97;4989554;28;20378;-88
2022/01/06 07:44:15;;;;;;;18.02;6.07;;;;;;;4.38;73.94;100088.47;4979741;28;20041;-87
2022/01/06 07:46:43;;;;;;;18.60;6.18;;;;;;;4.37;73.82;100092.00;5004874;28;20034;-88
2022/01/06 07:49:09;;;;;;;18.15;6.25;;;;;;;4.37;73.94;100097.25;4997957;28;20051;-88
2022/01/06 07:51:36;;;;;;;18.90;8.45;;;;;;;4.37;73.93;100107.78;4967653;28;20058;-86
2022/01/06 07:54:03;;;;;;;22.40;7.30;;;;;;;4.37;73.98;100113.03;4971040;28;20046;-88
2022/01/06 07:56:30;;;;;;;31.73;7.93;;;;;;;4.35;74.06;100121.88;4976974;28;20042;-87
2022/01/06 07:58:57;;;;;;;18.23;6.95;;;;;;;4.35;74.16;100132.38;5007281;28;20050;-86
2022/01/06 08:01:24;;;;;;;19.10;7.75;;;;;;;4.35;74.06;100132.38;5007979;28;20862;-88
2022/01/06 08:03:51;;;;;;;24.48;11.20;;;;;;;4.34;74.14;100133.31;4967196;28;20095;-88
2022/01/06 08:06:19;;;;;;;31.55;11.27;;;;;;;4.34;74.12;100130.69;4992180;28;20061;-87
2022/01/06 08:08:46;;;;;;;33.60;9.73;;;;;;;4.33;74.29;100129.00;4992187;28;20052;-87
2022/01/06 08:11:13;;;;;;;54.53;14.27;;;;;;;4.34;74.18;100137.72;4983707;28;20046;-88
2022/01/06 08:13:41;;;;;;;52.25;13.27;;;;;;;4.32;74.45;100137.78;5005807;28;20493;-88
2022/01/06 08:16:07;;;;;;;49.67;13.02;;;;;;;4.35;74.60;100147.28;4980927;28;20069;-88
2022/01/06 08:18:34;;;;;;;32.65;11.63;;;;;;;4.35;74.36;100147.28;4997323;28;20092;-83
2022/01/06 08:21:02;;;;;;;39.30;11.00;;;;;;;4.35;74.56;100140.28;4966486;28;20049;-86
2022/01/06 08:23:29;;;;;;;32.25;10.00;;;;;;;4.36;74.71;100146.38;4989964;28;20050;-86
2022/01/06 08:25:56;;;;;;;32.83;10.73;;;;;;;4.38;74.71;100148.94;4994368;28;20560;-86
2022/01/06 08:28:23;;;;;;;25.30;8.75;;;;;;;4.38;74.89;100152.41;5006794;28;20050;-86
2022/01/06 08:30:50;;;;;;;28.85;9.65;;;;;;;4.40;74.92;100158.41;4970880;28;20031;-86
2022/01/06 08:33:16;;;;;;;29.23;9.63;;;;;;;4.41;74.83;100152.22;4985229;28;20053;-81
2022/01/06 08:35:43;;;;;;;34.13;9.38;;;;;;;4.41;74.96;100160.09;4962266;28;20052;-86
2022/01/06 08:38:14;;;;;;;20.90;7.85;;;;;;;4.44;75.06;100162.53;4975835;28;20053;-83
2022/01/06 08:40:41;;;;;;;26.90;9.45;;;;;;;4.45;75.10;100160.75;4954348;28;20054;-81
2022/01/06 08:43:08;;;;;;;28.33;10.27;;;;;;;4.46;75.21;100162.47;4994140;28;20128;-82
2022/01/06 08:45:35;;;;;;;22.45;8.27;;;;;;;4.48;75.08;100171.97;4984496;28;20042;-83
2022/01/06 08:48:02;;;;;;;27.13;8.18;;;;;;;4.50;75.21;100170.09;4964518;28;20038;-84
2022/01/06 08:50:29;;;;;;;22.75;9.10;;;;;;;4.53;75.14;100169.91;4989279;28;20049;-84
2022/01/06 08:52:56;;;;;;;27.48;8.60;;;;;;;4.59;75.00;100168.72;4951612;28;20124;-85
2022/01/06 08:55:25;;;;;;;26.08;8.43;;;;;;;4.60;74.77;100165.13;4974125;28;20520;-87
2022/01/06 08:57:53;;;;;;;25.92;8.25;;;;;;;4.59;75.00;100173.13;5006823;28;20052;-87
2022/01/06 09:00:20;;;;;;;22.20;7.78;;;;;;;4.61;75.15;100179.16;4990359;28;20042;-87
2022/01/06 09:02:47;;;;;;;31.67;9.07;;;;;;;4.55;75.39;100180.31;4965678;28;20050;-82
2022/01/06 09:05:14;;;;;;;15.48;8.10;;;;;;;4.54;75.11;100176.00;4996642;28;20048;-83
2022/01/06 09:07:41;;;;;;;18.40;8.45;;;;;;;4.56;75.06;100188.13;4983354;28;20050;-85
2022/01/06 09:10:08;;;;;;;23.00;7.72;;;;;;;4.59;75.24;100166.06;4968025;28;20057;-85
2022/01/06 09:12:35;;;;;;;25.58;9.75;;;;;;;4.60;75.61;100177.44;4988844;28;20053;-83
2022/01/06 09:15:03;;;;;;;26.48;9.35;;;;;;;4.62;75.37;100183.47;4948900;28;20051;-86
2022/01/06 09:17:35;;;;;;;22.50;8.95;;;;;;;4.61;75.15;100173.88;4995315;28;20134;-88
2022/01/06 09:20:04;;;;;;;25.73;8.77;;;;;;;4.62;75.39;100186.94;4991304;28;20052;-82
2022/01/06 09:22:36;;;;;;;24.05;8.82;;;;;;;4.63;75.27;100195.66;4953390;28;20082;-83
2022/01/06 09:25:03;;;;;;;23.25;8.85;;;;;;;4.61;75.37;100198.41;5002025;28;20037;-88
2022/01/06 09:32:20;;;;;;;21.58;9.05;;;;;;;4.55;75.24;100204.00;4983759;28;20406;-88
2022/01/06 09:34:46;;;;;;;20.52;8.55;;;;;;;4.58;75.44;100206.47;4964267;28;20601;-88
2022/01/06 09:37:14;;;;;;;20.17;8.23;;;;;;;4.61;75.24;100219.44;4977123;28;20049;-87
2022/01/06 09:39:41;;;;;;;25.17;8.95;;;;;;;4.63;75.25;100217.56;4978566;28;20085;-86
2022/01/06 09:42:09;;;;;;;32.33;10.38;;;;;;;4.57;75.81;100221.38;5001112;28;20037;-87
2022/01/06 09:44:36;;;;;;;23.02;9.60;;;;;;;4.60;75.43;100223.00;4972262;28;20062;-87
2022/01/06 09:47:05;;;;;;;27.65;10.40;;;;;;;4.61;75.65;100227.34;4988267;28;20057;-87
2022/01/06 09:49:38;;;;;;;22.23;8.88;;;;;;;4.60;75.60;100223.00;4970044;28;20051;-85
2022/01/06 09:52:06;;;;;;;23.20;9.45;;;;;;;4.62;76.00;100225.53;4956714;28;20056;-87
2022/01/06 09:54:37;;;;;;;27.63;10.15;;;;;;;4.63;75.97;100225.47;4969061;28;20041;-87
2022/01/06 09:57:06;;;;;;;19.52;8.40;;;;;;;4.63;76.04;100220.22;4954572;28;20046;-87
2022/01/06 09:59:33;;;;;;;34.95;10.63;;;;;;;4.66;75.82;100227.91;4968285;28;20046;-88
2022/01/06 10:02:02;;;;;;;29.90;10.40;;;;;;;4.67;76.08;100226.13;4994451;28;20054;-87
2022/01/06 10:04:29;;;;;;;26.30;10.07;;;;;;;4.62;76.03;100221.13;5000689;28;20064;-86
2022/01/06 10:07:06;;;;;;;23.40;9.05;;;;;;;4.60;76.00;100223.00;4966217;28;20410;-85
2022/01/06 10:09:34;;;;;;;29.48;10.90;;;;;;;4.66;76.34;100225.28;5007046;28;20039;-86
2022/01/06 10:12:06;;;;;;;32.50;11.52;;;;;;;4.67;76.13;100223.50;4996886;28;20041;-87
2022/01/06 10:14:42;;;;;;;39.37;13.93;;;;;;;4.68;76.34;100220.78;4989928;28;20052;-86
2022/01/06 10:17:10;;;;;;;41.45;14.80;;;;;;;4.70;76.59;100225.94;4967962;28;20511;-86
2022/01/06 10:19:42;;;;;;;35.20;13.75;;;;;;;4.71;76.35;100225.03;4974331;28;20058;-87
2022/01/06 10:22:15;;;;;;;37.03;15.05;;;;;;;4.70;76.20;100226.78;4995342;28;20073;-87
2022/01/06 10:24:44;;;;;;;40.42;12.45;;;;;;;4.75;76.21;100230.00;4962624;28;20048;-87
2022/01/06 10:27:13;;;;;;;28.42;12.20;;;;;;;4.70;76.16;100229.41;5001703;28;20454;-87
2022/01/06 10:29:47;;;;;;;33.75;11.55;;;;;;;4.65;76.51;100228.00;4985646;28;20053;-86
2022/01/06 10:32:25;;;;;;;23.98;9.65;;;;;;;4.66;76.34;100230.53;4976476;28;20042;-87
2022/01/06 10:34:56;;;;;;;25.20;10.20;;;;;;;4.70;76.07;100228.56;4969249;28;20045;-87
2022/01/06 10:37:25;;;;;;;34.33;11.10;;;;;;;4.70;76.42;100229.41;4977869;28;20129;-86
2022/01/06 10:39:55;;;;;;;25.67;9.45;;;;;;;4.72;76.11;100238.06;4980679;28;20044;-87
2022/01/06 10:42:23;;;;;;;29.65;8.35;;;;;;;4.75;76.22;100239.69;4979700;28;20042;-87
2022/01/06 10:44:55;;;;;;;27.27;8.10;;;;;;;4.70;76.20;100244.34;4967994;28;20053;-87
2022/01/06 10:47:36;;;;;;;28.80;9.98;;;;;;;4.68;75.85;100243.59;4974785;28;20611;-86
2022/01/06 10:50:25;;;;;;;25.58;8.60;;;;;;;4.64;76.05;100237.66;4978921;28;20046;-86
2022/01/06 10:52:56;;;;;;;17.55;7.93;;;;;;;4.69;76.23;100237.41;4974038;28;20128;-86
2022/01/06 10:55:34;;;;;;;24.40;8.20;;;;;;;4.64;76.17;100242.09;4984646;28;20038;-86
2022/01/06 10:58:08;;;;;;;23.90;7.28;;;;;;;4.65;76.20;100244.63;4950802;28;20050;-87
2022/01/06 11:00:40;;;;;;;31.77;8.52;;;;;;;4.72;76.21;100250.38;4968298;28;20068;-86
2022/01/06 11:03:21;;;;;;;25.25;8.55;;;;;;;4.64;76.06;100237.66;4982313;28;20117;-86
2022/01/06 11:05:56;;;;;;;41.13;11.25;;;;;;;4.64;76.28;100250.81;4975354;28;20050;-87
2022/01/06 11:08:27;;;;;;;28.73;7.97;;;;;;;4.69;76.35;100246.16;4959714;28;20052;-87
2022/01/06 11:13:42;;;;;;;22.73;7.50;;;;;;;4.66;76.12;100256.84;4994859;28;20046;-85
2022/01/06 11:16:14;;;;;;;23.85;7.28;;;;;;;4.69;76.42;100259.31;4973437;28;20509;-86
2022/01/06 11:18:47;;;;;;;19.52;8.13;;;;;;;4.81;75.88;100256.88;4992506;28;20089;-86
2022/01/06 11:21:17;;;;;;;24.02;7.95;;;;;;;4.66;75.82;100259.47;5004588;28;20041;-88
2022/01/06 11:23:43;;;;;;;20.67;7.18;;;;;;;4.67;76.20;100260.31;5003008;28;20057;-87
2022/01/06 11:26:17;;;;;;;17.00;6.88;;;;;;;4.68;76.24;100260.25;4965174;28;20516;-86
2022/01/06 11:28:54;;;;;;;22.13;7.68;;;;;;;4.64;76.56;100248.19;4999137;28;20077;-87
2022/01/06 11:31:24;;;;;;;24.05;8.27;;;;;;;4.65;76.58;100254.28;4990816;28;20050;-87
2022/01/06 11:33:52;;;;;;;26.80;6.75;;;;;;;4.70;76.35;100257.50;4995281;28;20064;-87
2022/01/06 11:36:21;;;;;;;24.17;7.07;;;;;;;4.72;76.47;100253.00;4974952;28;20045;-87
2022/01/06 11:38:49;;;;;;;22.80;8.00;;;;;;;4.78;76.83;100256.16;5016587;28;20085;-87
2022/01/06 11:41:17;;;;;;;22.23;8.30;;;;;;;4.84;76.51;100257.56;4989518;28;20048;-86
2022/01/06 11:43:45;;;;;;;19.00;7.75;;;;;;;4.90;76.93;100251.94;4984638;28;20042;-86
2022/01/06 11:46:13;;;;;;;20.70;7.28;;;;;;;4.99;76.50;100253.22;5010796;28;20132;-87
2022/01/06 11:48:54;;;;;;;21.98;5.88;;;;;;;4.87;75.64;100256.53;4980902;28;20095;-87
2022/01/06 11:51:26;;;;;;;13.93;5.13;;;;;;;4.87;75.59;100249.50;4968814;28;20046;-86